Weather observations for the past three days for
Knoxville
Imperial (Metric)
Date Time (cdt) Wind (mph) Vis. (mi.) Weather Sky Cond. Temperature (ºF) Relative Humidity Wind Chill (°F) Heat Index (°F) Pressure Precipitation (in)
Air Dwpt 6 hour altimeter (in) sea level (mb) 1 hr 3 hr 6 hr
Max. Min.
06 17:55 E 9 10.00 Fair CLR 80.6 69.8 70% 84 30 0.0
06 17:35 E 8 10.00 Fair CLR 80.6 69.8 70% 84 30.01 0.0
06 17:15 E 7 G 15 10.00 Fair CLR 82.4 69.8 66% 86 29.99 0.0
06 16:55 E 8 G 17 10.00 Fair CLR 82.4 69.8 66% 86 29.98 0.0
06 16:35 E 13 G 23 10.00 Fair CLR 82.4 69.8 66% 86 29.96 0.0
06 16:15 E 15 10.00 Fair CLR 84.2 71.6 66% 90 29.96 0.0
06 15:55 E 14 10.00 Fair CLR 84.2 71.6 66% 90 29.97 0.0
06 15:35 E 10 10.00 Fair CLR 82.4 71.6 70% 87 30 0.0
06 15:15 E 10 G 18 10.00 Fair CLR 82.4 71.6 70% 87 30.02 0.0
06 14:55 E 8 G 15 10.00 Fair CLR 82.4 71.6 70% 87 30.03 0.0
06 14:35 E 9 G 16 10.00 Fair CLR 82.4 71.6 70% 87 30.04 0.0
06 14:15 E 10 G 16 10.00 Partly Cloudy SCT018 80.6 71.6 74% 85 30.05 0.0
06 13:55 E 12 10.00 Partly Cloudy SCT018 80.6 71.6 74% 85 30.05 0.0
06 13:35 E 10 G 16 10.00 Mostly Cloudy BKN018 80.6 71.6 74% 85 30.05 0.0
06 13:15 E 8 G 16 10.00 Mostly Cloudy BKN018 82.4 71.6 70% 87 30.05 0.0
06 12:55 E 9 G 16 10.00 Partly Cloudy SCT018 82.4 73.4 74% 88 30.05 0.0
06 12:35 SE 13 10.00 Partly Cloudy SCT016 80.6 71.6 74% 85 30.05 0.0
06 12:15 E 8 G 15 9.00 Mostly Cloudy BKN015 80.6 71.6 74% 85 30.05 0.0
06 11:55 E 10 G 17 10.00 Mostly Cloudy BKN013 78.8 71.6 79% 82 30.06 0.0
06 11:35 SE 8 G 15 10.00 Mostly Cloudy BKN012 77 71.6 83% 78 30.07 0.0
06 11:15 SE 10 9.00 Partly Cloudy SCT010 77 71.6 83% 78 30.07 0.0
06 10:55 E 8 9.00 Partly Cloudy SCT009 75.2 71.6 89% 75 30.07 0.0
06 10:35 SE 9 8.00 Partly Cloudy SCT008 75.2 71.6 89% 75 30.07 0.0
06 10:15 SE 7 8.00 Partly Cloudy SCT008 SCT016 75.2 71.6 89% 75 30.07 0.0
06 09:55 E 9 6.00 Fog/Mist SCT007 BKN017 75.2 71.6 89% 75 30.07 0.0
06 09:35 SE 8 9.00 Mostly Cloudy BKN007 BKN018 75.2 71.6 89% 75 30.07 0.0
06 09:15 SE 8 8.00 Mostly Cloudy BKN006 BKN018 73.4 71.6 94% 30.07 0.0
06 08:55 E 6 8.00 Mostly Cloudy BKN006 BKN019 73.4 71.6 94% 30.06 0.0
06 08:35 SE 8 7.00 Mostly Cloudy BKN006 BKN019 73.4 71.6 94% 30.07 0.0
06 08:15 E 6 8.00 Partly Cloudy SCT005 73.4 71.6 94% 30.06 0.0
06 07:55 SE 7 5.00 Fog/Mist SCT005 71.6 71.6 100% 30.05 0.0
06 07:35 E 7 6.00 Fog/Mist FEW004 71.6 69.8 94% 30.04 0.0
06 07:15 E 7 5.00 Fog/Mist CLR 71.6 69.8 94% 30.03 0.0
06 06:55 SE 6 7.00 A Few Clouds FEW019 71.6 69.8 94% 30.02 0.0
06 06:35 E 7 9.00 Mostly Cloudy BKN019 71.6 69.8 94% 30.02 0.0
06 06:15 SE 5 G 12 10.00 Overcast OVC019 71.6 69.8 94% 30.03 0.0
06 05:55 E 6 10.00 Overcast OVC020 71.6 69.8 94% 30.03 0.0
06 05:35 E 6 10.00 Mostly Cloudy BKN020 71.6 69.8 94% 30.03 0.0
06 05:15 E 5 9.00 Fair CLR 71.6 69.8 94% 30.03 0.0
06 04:55 E 6 10.00 Fair CLR 71.6 69.8 94% 30.02 0.0
06 04:35 E 7 10.00 Fair CLR 73.4 71.6 94% 30.02 0.0
06 04:15 E 8 10.00 Fair CLR 73.4 71.6 94% 30.01 0.0
06 03:55 Vrbl 6 G 12 10.00 Fair CLR 73.4 71.6 94% 30.01 0.0
06 03:35 SE 8 10.00 Fair CLR 73.4 71.6 94% 30 0.0
06 03:15 E 8 10.00 Fair CLR 73.4 71.6 94% 30 0.0
06 02:55 E 8 10.00 Fair CLR 73.4 71.6 94% 30 0.0
06 02:35 E 8 10.00 Fair CLR 75.2 71.6 89% 75 30.01 0.0
06 02:15 E 9 10.00 Fair CLR 75.2 71.6 89% 75 30.01 0.0
06 01:55 Vrbl 7 0.00 NULL NULL 75.2 71.6 89% 75 30.01 0.0
06 01:35 E 7 10.00 Fair CLR 75.2 73.4 94% 74 30.01 0.0
06 01:15 E 7 G 13 10.00 Partly Cloudy SCT140 75.2 73.4 94% 74 30.01 0.0
06 00:55 E 7 10.00 Mostly Cloudy BKN140 77 73.4 89% 78 30.01 0.0
06 00:35 E 8 10.00 Partly Cloudy SCT150 77 73.4 89% 78 30.01 0.0
06 00:15 E 7 10.00 Fair CLR 77 75.2 94% 78 30 0.0
05 23:55 E 8 10.00 Fair CLR 78.8 75.2 89% 82 30 0.0
05 23:35 E 7 G 15 10.00 Fair CLR 78.8 75.2 89% 82 30 0.0
05 23:15 E 14 10.00 A Few Clouds FEW150 78.8 77 94% 83 29.99 0.0
05 22:55 E 10 G 17 10.00 Mostly Cloudy BKN150 80.6 77 89% 87 29.99 0.0
05 22:35 E 9 10.00 Fair CLR 80.6 77 89% 87 29.99 0.0
05 22:15 NE 8 10.00 Fair CLR 82.4 77 84% 91 29.98 0.0
05 21:55 NE 6 10.00 Partly Cloudy SCT140 82.4 77 84% 91 29.97 0.0
05 21:35 E 5 10.00 Partly Cloudy SCT140 82.4 77 84% 91 29.97 0.0
05 21:15 Calm 10.00 A Few Clouds FEW140 82.4 77 84% 91 29.96 0.0
05 20:55 E 6 10.00 Fair CLR 84.2 77 79% 94 29.95 0.0
05 20:35 NE 5 10.00 Fair CLR 84.2 77 79% 94 29.95 0.0
05 20:15 NE 6 10.00 Fair CLR 86 77 75% 97 29.94 0.0
05 19:55 E 7 10.00 Fair CLR 86 77 75% 97 29.94 0.0
05 19:35 E 7 10.00 Fair CLR 87.8 75.2 66% 98 29.93 0.0
05 19:15 E 7 10.00 Fair CLR 87.8 77 70% 100 29.94 0.0
05 18:55 E 8 10.00 Fair CLR 89.6 75.2 63% 100 29.94 0.0
05 18:35 E 10 10.00 Fair CLR 89.6 75.2 63% 100 29.94 0.0
05 18:15 E 8 10.00 Fair CLR 91.4 75.2 59% 103 29.94 0.0
05 17:55 E 8 10.00 Fair CLR 91.4 75.2 59% 103 29.94 0.0
05 17:35 E 8 10.00 Fair CLR 91.4 75.2 59% 103 29.93 0.0
05 17:15 E 9 10.00 Fair CLR 91.4 75.2 59% 103 29.93 0.0
05 16:55 NE 7 10.00 Fair CLR 91.4 75.2 59% 103 29.92 0.0
05 16:35 NE 10 10.00 Fair CLR 91.4 75.2 59% 103 29.93 0.0
05 16:15 NE 9 G 16 10.00 Partly Cloudy FEW037 SCT046 89.6 75.2 63% 100 29.93 0.0
05 15:55 E 7 G 14 10.00 A Few Clouds FEW042 FEW050 91.4 75.2 59% 103 29.93 0.0
05 15:35 NE 7 G 13 10.00 Partly Cloudy FEW038 SCT048 91.4 75.2 59% 103 29.94 0.0
05 15:15 NE 7 10.00 A Few Clouds FEW039 93.2 73.4 53% 103 29.94 0.0
05 14:55 NE 8 10.00 A Few Clouds FEW039 FEW055 93.2 73.4 53% 103 29.95 0.0
05 12:55 NW 7 10.00 Fair CLR 89.6 71.6 55% 96 29.99 0.0
05 12:35 Vrbl 6 10.00 Fair CLR 91.4 75.2 59% 103 29.98 0.0
05 12:15 NW 6 10.00 A Few Clouds FEW060 89.6 71.6 55% 96 29.98 0.0
05 11:55 NW 6 10.00 A Few Clouds FEW065 89.6 75.2 63% 100 29.98 0.0
05 11:35 NW 5 9.00 Fair CLR 87.8 75.2 66% 98 29.99 0.0
05 11:15 Calm 10.00 Fair CLR 86 77 75% 97 29.99 0.0
05 10:55 Calm 10.00 Fair CLR 86 77 75% 97 29.99 0.0
05 10:35 W 5 10.00 Fair CLR 84.2 75.2 74% 92 29.98 0.0
05 09:35 SW 3 10.00 Fair CLR 82.4 75.2 79% 89 29.97 0.0
05 09:15 Calm 10.00 Fair CLR 82.4 73.4 74% 88 29.96 0.0
05 09:00 Calm 10.00 Fair CLR 80.6 73.4 79% 85 29.96 0.0
05 08:35 Calm 10.00 Fair CLR 78.8 73.4 84% 82 29.96 0.0
05 08:15 Calm 10.00 Fair CLR 77 73.4 89% 78 29.96 0.0
05 07:55 Calm 10.00 Fair CLR 77 73.4 89% 78 29.95 0.0
05 07:35 Calm 10.00 Fair CLR 75.2 71.6 89% 75 29.95 0.0
05 07:15 Calm 10.00 Fair CLR 75.2 71.6 89% 75 29.94 0.0
05 06:55 Calm 10.00 Fair CLR 73.4 71.6 94% 29.93 0.0
05 06:35 W 3 10.00 A Few Clouds FEW065 75.2 71.6 89% 75 29.93 0.0
05 06:15 NW 3 10.00 Fair CLR 75.2 71.6 89% 75 29.93 0.0
05 05:55 Calm 10.00 Fair CLR 75.2 71.6 89% 75 29.92 0.0
05 05:35 Calm 10.00 Fair CLR 77 71.6 83% 78 29.92 0.0
05 05:15 Calm 10.00 Fair CLR 77 71.6 83% 78 29.92 0.0
05 04:55 S 3 10.00 Fair CLR 77 71.6 83% 78 29.92 0.0
05 04:35 Calm 10.00 Fair CLR 77 71.6 83% 78 29.92 0.0
05 04:15 Calm 10.00 Fair CLR 77 71.6 83% 78 29.92 0.0
05 03:35 SW 5 10.00 Fair CLR 77 71.6 83% 78 29.93 0.0
05 03:15 SW 6 10.00 Fair CLR 77 73.4 89% 78 29.93 0.0
05 02:55 SW 7 10.00 Fair CLR 77 73.4 89% 78 29.93 0.0
05 02:35 S 7 10.00 Fair CLR 77 73.4 89% 78 29.93 0.0
05 02:15 SW 5 10.00 Fair CLR 77 73.4 89% 78 29.93 0.0
05 01:55 Calm 10.00 Fair CLR 77 73.4 89% 78 29.93 0.0
05 01:35 Calm 10.00 Fair CLR 77 73.4 89% 78 29.93 0.0
05 01:15 S 5 10.00 Fair CLR 78.8 73.4 84% 82 29.93 0.0
05 00:55 S 5 10.00 Fair CLR 78.8 73.4 84% 82 29.93 0.0
05 00:35 S 7 10.00 Fair CLR 78.8 73.4 84% 82 29.92 0.0
05 00:15 S 7 10.00 Fair CLR 80.6 73.4 79% 85 29.92 0.0
04 23:55 S 6 8.00 Fair CLR 78.8 73.4 84% 82 29.92 0.0
04 23:35 S 6 10.00 Fair CLR 80.6 73.4 79% 85 29.92 0.0
04 23:15 S 6 8.00 Fair CLR 80.6 75.2 84% 86 29.92 0.0
04 22:55 S 6 10.00 Fair CLR 80.6 75.2 84% 86 29.92 0.0
04 22:35 S 5 10.00 Fair CLR 82.4 75.2 79% 89 29.92 0.0
04 22:15 S 6 9.00 Fair CLR 80.6 75.2 84% 86 29.91 0.0
04 21:55 S 6 10.00 Fair CLR 82.4 75.2 79% 89 29.92 0.0
04 21:35 SE 5 10.00 Fair CLR 84.2 75.2 74% 92 29.92 0.0
04 21:15 SE 3 10.00 Fair CLR 84.2 75.2 74% 92 29.91 0.0
04 20:55 SE 5 10.00 Fair CLR 84.2 75.2 74% 92 29.91 0.0
04 20:35 SE 5 10.00 Fair CLR 86 73.4 66% 93 29.91 0.0
04 20:15 SE 3 10.00 Fair CLR 86 73.4 66% 93 29.9 0.0
04 19:55 S 3 10.00 Fair CLR 87.8 73.4 62% 96 29.89 0.0
04 19:35 S 5 10.00 A Few Clouds FEW110 87.8 73.4 62% 96 29.89 0.0
04 19:15 S 5 10.00 Partly Cloudy SCT110 87.8 75.2 66% 98 29.89 0.0
04 18:55 SW 5 10.00 A Few Clouds FEW110 89.6 75.2 63% 100 29.89 0.0
04 18:35 SW 6 10.00 Fair CLR 89.6 75.2 63% 100 29.89 0.0
04 18:15 S 6 10.00 Fair CLR 91.4 75.2 59% 103 29.89 0.0
04 17:55 S 6 10.00 Fair CLR 89.6 73.4 59% 98 29.88 0.0
04 17:35 S 8 G 15 10.00 Fair CLR 91.4 73.4 56% 100 29.88 0.0
04 17:15 S 8 10.00 Fair CLR 93.2 73.4 53% 103 29.88 0.0
04 16:55 S 13 10.00 Fair CLR 93.2 73.4 53% 103 29.88 0.0
04 16:35 S 9 10.00 Fair CLR 93.2 73.4 53% 103 29.88 0.0
04 16:15 SW 10 10.00 Fair CLR 93.2 73.4 53% 103 29.89 0.0
04 15:55 SW 12 10.00 Fair CLR 93.2 73.4 53% 103 29.89 0.0
04 15:35 SW 13 G 18 10.00 Fair CLR 91.4 71.6 52% 99 29.89 0.0
04 15:15 SW 13 10.00 Fair CLR 93.2 73.4 53% 103 29.89 0.0
04 14:55 SW 15 G 21 10.00 Fair CLR 93.2 71.6 50% 101 29.89 0.0
04 14:10 S 14 10.00 Fair CLR 91.4 73.4 56% 100 29.9 0.0
04 13:55 S 12 G 22 10.00 Fair CLR 91.4 71.6 52% 99 29.91 0.0
04 13:35 S 15 10.00 Fair CLR 91.4 71.6 52% 99 29.91 0.0
04 13:15 S 13 10.00 Fair CLR 91.4 73.4 56% 100 29.91 0.0
04 12:55 S 14 10.00 Fair CLR 89.6 73.4 59% 98 29.92 0.0
04 12:35 S 13 10.00 Fair CLR 89.6 73.4 59% 98 29.93 0.0
04 12:15 SW 13 10.00 Fair CLR 89.6 71.6 55% 96 29.93 0.0
04 11:35 SW 17 10.00 Fair CLR 89.6 71.6 55% 96 29.93 0.0
04 11:15 SW 15 10.00 Fair CLR 89.6 71.6 55% 96 29.93 0.0
04 10:55 SW 13 10.00 Fair CLR 87.8 71.6 59% 94 29.93 0.0
04 10:35 SW 14 10.00 Fair CLR 86 71.6 62% 92 29.93 0.0
04 10:15 SW 10 G 17 10.00 Fair CLR 87.8 71.6 59% 94 29.93 0.0
04 09:55 SW 9 10.00 Fair CLR 86 71.6 62% 92 29.93 0.0
04 09:35 SW 9 10.00 Fair CLR 84.2 71.6 66% 90 29.92 0.0
04 09:15 SW 8 10.00 Fair CLR 82.4 71.6 70% 87 29.92 0.0
04 08:55 SW 8 G 14 10.00 Fair CLR 80.6 71.6 74% 85 29.92 0.0
04 08:35 S 8 10.00 Fair CLR 78.8 69.8 74% 81 29.92 0.0
04 08:15 S 6 10.00 Fair CLR 77 69.8 79% 79 29.92 0.0
04 07:55 S 7 10.00 Fair CLR 75.2 69.8 83% 75 29.92 0.0
04 07:35 S 6 10.00 Fair CLR 75.2 69.8 83% 75 29.91 0.0
04 07:15 S 5 10.00 A Few Clouds FEW150 73.4 69.8 89% 29.91 0.0
04 06:55 S 6 10.00 A Few Clouds FEW150 73.4 69.8 89% 29.9 0.0
04 06:35 S 5 10.00 Fair CLR 75.2 68 78% 76 29.9 0.0
04 06:15 S 5 10.00 Fair CLR 75.2 69.8 83% 75 29.9 0.0
04 05:55 S 5 10.00 Fair CLR 75.2 68 78% 76 29.89 0.0
04 05:35 S 5 10.00 Fair CLR 77 69.8 79% 79 29.89 0.0
04 04:50 S 9 10.00 Fair CLR 77 69.8 79% 79 29.87 0.0
04 04:35 S 7 10.00 Fair CLR 77 69.8 79% 79 29.87 0.0
04 04:15 S 7 10.00 Fair CLR 77 69.8 79% 79 29.87 0.0
04 03:55 S 7 10.00 Fair CLR 77 69.8 79% 79 29.86 0.0
04 03:40 S 6 10.00 Fair CLR 77 69.8 79% 79 29.86 0.0
04 03:15 S 7 10.00 Fair CLR 77 69.8 79% 79 29.86 0.0
04 02:55 S 7 10.00 Fair CLR 77 69.8 79% 79 29.86 0.0
04 02:15 S 6 10.00 Fair CLR 77 69.8 79% 79 29.87 0.0
04 01:55 S 6 10.00 Fair CLR 78.8 69.8 74% 81 29.88 0.0
04 01:35 S 6 10.00 Fair CLR 77 69.8 79% 79 29.88 0.0
04 01:15 S 6 10.00 Fair CLR 78.8 69.8 74% 81 29.88 0.0
04 00:55 S 5 10.00 Fair CLR 78.8 69.8 74% 81 29.89 0.0
04 00:35 S 5 10.00 Fair CLR 78.8 69.8 74% 81 29.88 0.0
04 00:15 S 5 10.00 Fair CLR 78.8 69.8 74% 81 29.88 0.0
03 23:55 S 5 10.00 Fair CLR 78.8 69.8 74% 81 29.88 0.0
03 23:35 S 5 10.00 Fair CLR 80.6 69.8 70% 84 29.88 0.0
03 23:15 S 5 10.00 Fair CLR 80.6 69.8 70% 84 29.88 0.0
03 22:55 S 5 10.00 Fair CLR 80.6 69.8 70% 84 29.88 0.0
03 22:35 S 5 10.00 Fair CLR 80.6 69.8 70% 84 29.88 0.0
03 22:15 S 5 10.00 Fair CLR 80.6 69.8 70% 84 29.88 0.0
03 21:55 S 6 10.00 Fair CLR 82.4 69.8 66% 86 29.87 0.0
03 21:35 S 6 10.00 Fair CLR 82.4 69.8 66% 86 29.87 0.0
03 21:15 S 7 10.00 Fair CLR 82.4 71.6 70% 87 29.87 0.0
03 20:55 S 8 10.00 Fair CLR 84.2 71.6 66% 90 29.86 0.0
03 20:35 S 9 10.00 Fair CLR 84.2 71.6 66% 90 29.86 0.0
03 20:15 S 8 10.00 Partly Cloudy SCT160 86 71.6 62% 92 29.85 0.0
03 19:55 S 8 10.00 Fair CLR 86 71.6 62% 92 29.84 0.0
03 19:35 S 7 10.00 A Few Clouds FEW160 86 71.6 62% 92 29.84 0.0
03 19:15 S 8 10.00 Fair CLR 87.8 71.6 59% 94 29.84 0.0
03 18:55 S 7 10.00 Fair CLR 89.6 71.6 55% 96 29.84 0.0
03 18:35 S 9 10.00 Fair CLR 89.6 71.6 55% 96 29.84 0.0
03 18:15 S 10 10.00 Fair CLR 91.4 71.6 52% 99 29.84 0.0
Date Time (cdt) Wind (mph) Vis. (mi.) Weather Sky Cond. Air Dwpt Max. Min. Relative Humidity Wind Chill (°F) Heat Index (°F) altimeter (in) sea level (mb) 1 hr 3 hr 6 hr
6 hour
Temperature (ºF) Pressure Precipitation (in)